sensor_id;sensor_type;location;lat;lon;timestamp;pressure;altitude;pressure_sealevel;temperature;humidity
19811;BME280;10065;49.632;8.346;2022-12-07T00:01:06;100795.88;;;7.43;69.85
19811;BME280;10065;49.632;8.346;2022-12-07T00:03:36;100792.88;;;7.47;69.42
19811;BME280;10065;49.632;8.346;2022-12-07T00:06:05;100790.09;;;7.49;69.43
19811;BME280;10065;49.632;8.346;2022-12-07T00:08:35;100782.56;;;7.44;69.67
19811;BME280;10065;49.632;8.346;2022-12-07T00:11:03;100788.91;;;7.42;69.68
19811;BME280;10065;49.632;8.346;2022-12-07T00:13:32;100786.50;;;7.28;70.04
19811;BME280;10065;49.632;8.346;2022-12-07T00:16:02;100783.50;;;7.32;70.15
19811;BME280;10065;49.632;8.346;2022-12-07T00:18:30;100776.31;;;7.34;70.42
19811;BME280;10065;49.632;8.346;2022-12-07T00:20:59;100769.72;;;7.40;70.40
19811;BME280;10065;49.632;8.346;2022-12-07T00:23:28;100776.94;;;7.38;70.26
19811;BME280;10065;49.632;8.346;2022-12-07T00:26:03;100778.72;;;7.37;70.30
19811;BME280;10065;49.632;8.346;2022-12-07T00:28:31;100773.78;;;7.33;70.43
19811;BME280;10065;49.632;8.346;2022-12-07T00:31:02;100778.13;;;7.34;70.74
19811;BME280;10065;49.632;8.346;2022-12-07T00:33:29;100771.50;;;7.39;70.61
19811;BME280;10065;49.632;8.346;2022-12-07T00:35:58;100770.31;;;7.43;70.39
19811;BME280;10065;49.632;8.346;2022-12-07T00:38:28;100762.88;;;7.48;70.47
19811;BME280;10065;49.632;8.346;2022-12-07T00:40:59;100757.69;;;7.58;70.00
19811;BME280;10065;49.632;8.346;2022-12-07T00:43:27;100764.88;;;7.67;69.56
19811;BME280;10065;49.632;8.346;2022-12-07T00:45:55;100758.75;;;7.67;69.60
19811;BME280;10065;49.632;8.346;2022-12-07T00:48:26;100762.75;;;7.61;69.56
19811;BME280;10065;49.632;8.346;2022-12-07T00:50:54;100764.44;;;7.51;69.88
19811;BME280;10065;49.632;8.346;2022-12-07T00:53:22;100761.09;;;7.38;70.41
19811;BME280;10065;49.632;8.346;2022-12-07T00:55:50;100764.94;;;7.45;70.31
19811;BME280;10065;49.632;8.346;2022-12-07T00:58:20;100757.34;;;7.51;70.42
19811;BME280;10065;49.632;8.346;2022-12-07T01:00:48;100752.19;;;7.50;70.21
19811;BME280;10065;49.632;8.346;2022-12-07T01:03:16;100741.91;;;7.47;70.38
19811;BME280;10065;49.632;8.346;2022-12-07T01:05:51;100741.63;;;7.50;70.34
19811;BME280;10065;49.632;8.346;2022-12-07T01:08:19;100734.00;;;7.47;70.35
19811;BME280;10065;49.632;8.346;2022-12-07T01:10:47;100739.16;;;7.37;70.53
19811;BME280;10065;49.632;8.346;2022-12-07T01:13:16;100742.97;;;7.33;71.16
19811;BME280;10065;49.632;8.346;2022-12-07T01:15:45;100742.97;;;7.33;71.31
19811;BME280;10065;49.632;8.346;2022-12-07T01:18:12;100738.66;;;7.32;71.28
19811;BME280;10065;49.632;8.346;2022-12-07T01:20:40;100745.97;;;7.40;71.42
19811;BME280;10065;49.632;8.346;2022-12-07T01:23:08;100745.72;;;7.43;70.85
19811;BME280;10065;49.632;8.346;2022-12-07T01:25:36;100746.91;;;7.39;70.72
19811;BME280;10065;49.632;8.346;2022-12-07T01:28:04;100741.91;;;7.36;71.04
19811;BME280;10065;49.632;8.346;2022-12-07T01:30:31;100746.91;;;7.39;71.10
19811;BME280;10065;49.632;8.346;2022-12-07T01:33:00;100745.72;;;7.32;70.94
19811;BME280;10065;49.632;8.346;2022-12-07T01:35:28;100753.06;;;7.17;71.39
19811;BME280;10065;49.632;8.346;2022-12-07T01:37:56;100744.41;;;7.15;71.60
19811;BME280;10065;49.632;8.346;2022-12-07T01:40:23;100743.84;;;7.11;71.56
19811;BME280;10065;49.632;8.346;2022-12-07T01:42:51;100745.97;;;7.17;71.21
19811;BME280;10065;49.632;8.346;2022-12-07T01:45:38;100751.25;;;7.06;71.56
19811;BME280;10065;49.632;8.346;2022-12-07T01:48:09;100755.34;;;7.10;71.74
19811;BME280;10065;49.632;8.346;2022-12-07T01:50:40;100758.56;;;7.14;71.47
19811;BME280;10065;49.632;8.346;2022-12-07T01:53:10;100755.91;;;7.14;71.21
19811;BME280;10065;49.632;8.346;2022-12-07T01:55:40;100742.63;;;7.15;70.88
19811;BME280;10065;49.632;8.346;2022-12-07T01:58:10;100748.00;;;7.14;70.56
19811;BME280;10065;49.632;8.346;2022-12-07T02:00:39;100741.66;;;7.16;70.33
19811;BME280;10065;49.632;8.346;2022-12-07T02:03:13;100737.34;;;7.15;70.26
19811;BME280;10065;49.632;8.346;2022-12-07T02:05:43;100731.84;;;7.18;70.08
19811;BME280;10065;49.632;8.346;2022-12-07T02:08:12;100734.69;;;7.15;70.03
19811;BME280;10065;49.632;8.346;2022-12-07T02:10:41;100731.59;;;7.10;70.11
19811;BME280;10065;49.632;8.346;2022-12-07T02:13:11;100735.19;;;7.09;70.27
19811;BME280;10065;49.632;8.346;2022-12-07T02:15:51;100738.44;;;7.02;70.49
19811;BME280;10065;49.632;8.346;2022-12-07T02:18:34;100744.03;;;6.97;70.40
19811;BME280;10065;49.632;8.346;2022-12-07T02:21:09;100738.53;;;6.89;70.83
19811;BME280;10065;49.632;8.346;2022-12-07T02:23:56;100741.66;;;6.94;70.74
19811;BME280;10065;49.632;8.346;2022-12-07T02:27:00;100735.16;;;6.87;71.04
19811;BME280;10065;49.632;8.346;2022-12-07T02:29:39;100730.75;;;6.99;70.87
19811;BME280;10065;49.632;8.346;2022-12-07T02:32:14;100731.72;;;7.09;70.37
19811;BME280;10065;49.632;8.346;2022-12-07T02:34:48;100732.66;;;7.08;70.33
19811;BME280;10065;49.632;8.346;2022-12-07T02:37:25;100728.94;;;6.99;70.50
19811;BME280;10065;49.632;8.346;2022-12-07T02:40:00;100737.81;;;6.98;70.63
19811;BME280;10065;49.632;8.346;2022-12-07T02:42:33;100716.94;;;6.95;70.87
19811;BME280;10065;49.632;8.346;2022-12-07T02:45:05;100714.47;;;6.94;71.23
19811;BME280;10065;49.632;8.346;2022-12-07T02:47:35;100712.91;;;7.02;70.78
19811;BME280;10065;49.632;8.346;2022-12-07T02:50:05;100705.72;;;6.93;70.71
19811;BME280;10065;49.632;8.346;2022-12-07T02:52:33;100702.59;;;6.99;71.05
19811;BME280;10065;49.632;8.346;2022-12-07T02:55:01;100707.13;;;7.08;70.53
19811;BME280;10065;49.632;8.346;2022-12-07T02:57:41;100709.16;;;7.05;70.70
19811;BME280;10065;49.632;8.346;2022-12-07T03:00:13;100719.25;;;7.00;70.70
19811;BME280;10065;49.632;8.346;2022-12-07T03:02:50;100706.91;;;7.11;70.47
19811;BME280;10065;49.632;8.346;2022-12-07T03:05:37;100704.00;;;7.26;69.92
19811;BME280;10065;49.632;8.346;2022-12-07T03:08:13;100694.19;;;7.16;69.35
19811;BME280;10065;49.632;8.346;2022-12-07T03:10:53;100689.78;;;6.95;69.95
19811;BME280;10065;49.632;8.346;2022-12-07T03:13:25;100695.03;;;6.84;71.10
19811;BME280;10065;49.632;8.346;2022-12-07T03:16:02;100695.88;;;6.84;70.80
19811;BME280;10065;49.632;8.346;2022-12-07T03:18:34;100694.31;;;6.82;71.02
19811;BME280;10065;49.632;8.346;2022-12-07T03:21:08;100686.03;;;6.75;71.11
19811;BME280;10065;49.632;8.346;2022-12-07T03:23:40;100690.81;;;6.70;71.37
19811;BME280;10065;49.632;8.346;2022-12-07T03:26:11;100695.22;;;6.69;71.34
19811;BME280;10065;49.632;8.346;2022-12-07T03:28:42;100695.50;;;6.66;71.45
19811;BME280;10065;49.632;8.346;2022-12-07T03:31:19;100687.00;;;6.74;71.07
19811;BME280;10065;49.632;8.346;2022-12-07T03:33:54;100692.13;;;6.64;70.87
19811;BME280;10065;49.632;8.346;2022-12-07T03:36:29;100687.69;;;6.65;71.40
19811;BME280;10065;49.632;8.346;2022-12-07T03:39:03;100677.38;;;6.62;71.45
19811;BME280;10065;49.632;8.346;2022-12-07T03:41:37;100676.44;;;6.63;71.72
19811;BME280;10065;49.632;8.346;2022-12-07T03:44:10;100683.84;;;6.69;71.79
19811;BME280;10065;49.632;8.346;2022-12-07T03:46:43;100684.13;;;6.66;71.52
19811;BME280;10065;49.632;8.346;2022-12-07T03:49:23;100688.06;;;6.71;71.87
19811;BME280;10065;49.632;8.346;2022-12-07T03:51:55;100686.50;;;6.80;71.33
19811;BME280;10065;49.632;8.346;2022-12-07T03:54:28;100684.72;;;6.92;71.37
19811;BME280;10065;49.632;8.346;2022-12-07T03:56:58;100684.59;;;7.04;70.88
19811;BME280;10065;49.632;8.346;2022-12-07T03:59:27;100685.56;;;7.14;70.72
19811;BME280;10065;49.632;8.346;2022-12-07T04:02:01;100681.72;;;7.18;70.60
19811;BME280;10065;49.632;8.346;2022-12-07T04:04:29;100673.31;;;7.25;70.56
19811;BME280;10065;49.632;8.346;2022-12-07T04:06:58;100683.88;;;7.25;70.47
19811;BME280;10065;49.632;8.346;2022-12-07T04:09:26;100684.38;;;7.18;69.79
19811;BME280;10065;49.632;8.346;2022-12-07T04:11:54;100690.00;;;7.14;69.41
19811;BME280;10065;49.632;8.346;2022-12-07T04:14:24;100686.66;;;7.12;69.37
19811;BME280;10065;49.632;8.346;2022-12-07T04:16:54;100684.97;;;7.11;69.21
19811;BME280;10065;49.632;8.346;2022-12-07T04:19:26;100684.03;;;7.12;69.08
19811;BME280;10065;49.632;8.346;2022-12-07T04:21:55;100683.03;;;7.13;68.89
19811;BME280;10065;49.632;8.346;2022-12-07T04:24:24;100681.84;;;7.17;68.54
19811;BME280;10065;49.632;8.346;2022-12-07T04:26:54;100676.44;;;7.18;68.71
19811;BME280;10065;49.632;8.346;2022-12-07T04:29:22;100679.44;;;7.14;68.49
19811;BME280;10065;49.632;8.346;2022-12-07T04:31:54;100674.41;;;7.22;68.58
19811;BME280;10065;49.632;8.346;2022-12-07T04:34:21;100679.66;;;7.22;68.36
19811;BME280;10065;49.632;8.346;2022-12-07T04:36:50;100675.72;;;7.28;68.52
19811;BME280;10065;49.632;8.346;2022-12-07T04:39:21;100679.88;;;7.41;68.24
19811;BME280;10065;49.632;8.346;2022-12-07T04:41:49;100681.34;;;7.45;67.95
19811;BME280;10065;49.632;8.346;2022-12-07T04:44:18;100681.66;;;7.52;67.75
19811;BME280;10065;49.632;8.346;2022-12-07T04:46:46;100680.84;;;7.51;67.55
19811;BME280;10065;49.632;8.346;2022-12-07T04:49:15;100676.00;;;7.56;67.50
19811;BME280;10065;49.632;8.346;2022-12-07T04:51:43;100673.53;;;7.55;67.27
19811;BME280;10065;49.632;8.346;2022-12-07T04:54:14;100674.94;;;7.59;67.18
19811;BME280;10065;49.632;8.346;2022-12-07T04:56:43;100680.47;;;7.56;67.23
19811;BME280;10065;49.632;8.346;2022-12-07T04:59:11;100670.16;;;7.53;67.54
19811;BME280;10065;49.632;8.346;2022-12-07T05:01:39;100667.97;;;7.58;67.20
19811;BME280;10065;49.632;8.346;2022-12-07T05:04:08;100666.91;;;7.61;66.94
19811;BME280;10065;49.632;8.346;2022-12-07T05:06:36;100671.63;;;7.46;67.45
19811;BME280;10065;49.632;8.346;2022-12-07T05:09:04;100666.25;;;7.36;68.50
19811;BME280;10065;49.632;8.346;2022-12-07T05:11:33;100666.13;;;7.38;68.50
19811;BME280;10065;49.632;8.346;2022-12-07T05:14:11;100670.56;;;7.37;68.44
19811;BME280;10065;49.632;8.346;2022-12-07T05:16:40;100675.00;;;7.37;68.71
19811;BME280;10065;49.632;8.346;2022-12-07T05:19:08;100669.72;;;7.37;69.11
19811;BME280;10065;49.632;8.346;2022-12-07T05:21:36;100675.56;;;7.40;68.94
19811;BME280;10065;49.632;8.346;2022-12-07T05:24:05;100672.34;;;7.37;68.65
19811;BME280;10065;49.632;8.346;2022-12-07T05:26:35;100675.22;;;7.34;68.88
19811;BME280;10065;49.632;8.346;2022-12-07T05:29:03;100681.47;;;7.33;69.19
19811;BME280;10065;49.632;8.346;2022-12-07T05:31:31;100676.91;;;7.35;69.15
19811;BME280;10065;49.632;8.346;2022-12-07T05:34:00;100674.38;;;7.44;68.76
19811;BME280;10065;49.632;8.346;2022-12-07T05:36:27;100675.44;;;7.42;68.74
19811;BME280;10065;49.632;8.346;2022-12-07T05:38:57;100676.69;;;7.38;68.55
19811;BME280;10065;49.632;8.346;2022-12-07T05:41:25;100669.81;;;7.46;68.39
19811;BME280;10065;49.632;8.346;2022-12-07T05:44:13;100666.56;;;7.54;68.26
19811;BME280;10065;49.632;8.346;2022-12-07T05:46:41;100672.50;;;7.67;67.93
19811;BME280;10065;49.632;8.346;2022-12-07T05:49:09;100674.53;;;7.75;67.47
19811;BME280;10065;49.632;8.346;2022-12-07T05:51:37;100674.78;;;7.72;67.84
19811;BME280;10065;49.632;8.346;2022-12-07T05:54:04;100678.97;;;7.74;67.74
19811;BME280;10065;49.632;8.346;2022-12-07T05:56:32;100670.72;;;7.68;67.98
19811;BME280;10065;49.632;8.346;2022-12-07T05:59:00;100667.97;;;7.58;67.79
19811;BME280;10065;49.632;8.346;2022-12-07T06:01:46;100662.69;;;7.58;67.74
19811;BME280;10065;49.632;8.346;2022-12-07T06:04:14;100664.28;;;7.49;67.90
19811;BME280;10065;49.632;8.346;2022-12-07T06:06:42;100663.44;;;7.49;68.29
19811;BME280;10065;49.632;8.346;2022-12-07T06:09:10;100666.47;;;7.44;68.51
19811;BME280;10065;49.632;8.346;2022-12-07T06:11:39;100672.09;;;7.40;68.55
19811;BME280;10065;49.632;8.346;2022-12-07T06:14:21;100675.56;;;7.40;68.56
19811;BME280;10065;49.632;8.346;2022-12-07T06:16:50;100675.00;;;7.37;68.78
19811;BME280;10065;49.632;8.346;2022-12-07T06:19:18;100675.22;;;7.34;68.84
19811;BME280;10065;49.632;8.346;2022-12-07T06:21:46;100675.22;;;7.34;69.09
19811;BME280;10065;49.632;8.346;2022-12-07T06:24:15;100683.25;;;7.32;69.33
19811;BME280;10065;49.632;8.346;2022-12-07T06:26:44;100678.38;;;7.28;69.58
19811;BME280;10065;49.632;8.346;2022-12-07T06:29:12;100672.59;;;7.23;69.56
19811;BME280;10065;49.632;8.346;2022-12-07T06:31:40;100675.97;;;7.25;69.67
19811;BME280;10065;49.632;8.346;2022-12-07T06:34:12;100672.47;;;7.24;69.68
19811;BME280;10065;49.632;8.346;2022-12-07T06:36:40;100675.97;;;7.25;69.79
19811;BME280;10065;49.632;8.346;2022-12-07T06:39:08;100681.22;;;7.25;69.81
19811;BME280;10065;49.632;8.346;2022-12-07T06:41:36;100677.03;;;7.22;69.87
19811;BME280;10065;49.632;8.346;2022-12-07T06:44:05;100695.38;;;7.24;69.96
19811;BME280;10065;49.632;8.346;2022-12-07T06:46:33;100683.88;;;7.36;69.77
19811;BME280;10065;49.632;8.346;2022-12-07T06:49:02;100685.03;;;7.43;69.20
19811;BME280;10065;49.632;8.346;2022-12-07T06:51:31;100674.16;;;7.36;69.31
19811;BME280;10065;49.632;8.346;2022-12-07T06:53:59;100677.03;;;7.33;69.60
19811;BME280;10065;49.632;8.346;2022-12-07T06:56:26;100678.81;;;7.33;69.31
19811;BME280;10065;49.632;8.346;2022-12-07T06:58:55;100678.81;;;7.33;69.47
19811;BME280;10065;49.632;8.346;2022-12-07T07:01:22;100682.78;;;7.38;69.16
19811;BME280;10065;49.632;8.346;2022-12-07T07:03:50;100684.22;;;7.42;68.77
19811;BME280;10065;49.632;8.346;2022-12-07T07:06:18;100687.34;;;7.36;68.90
19811;BME280;10065;49.632;8.346;2022-12-07T07:08:47;100686.50;;;7.36;69.29
19811;BME280;10065;49.632;8.346;2022-12-07T07:11:15;100693.69;;;7.45;69.08
19811;BME280;10065;49.632;8.346;2022-12-07T07:13:44;100686.34;;;7.48;68.78
19811;BME280;10065;49.632;8.346;2022-12-07T07:16:12;100689.47;;;7.42;69.10
19811;BME280;10065;49.632;8.346;2022-12-07T07:18:40;100694.41;;;7.47;69.18
19811;BME280;10065;49.632;8.346;2022-12-07T07:21:07;100695.59;;;7.43;69.32
19811;BME280;10065;49.632;8.346;2022-12-07T07:23:36;100694.25;;;7.48;69.22
19811;BME280;10065;49.632;8.346;2022-12-07T07:26:05;100698.56;;;7.61;69.13
19811;BME280;10065;49.632;8.346;2022-12-07T07:28:33;100691.94;;;7.66;68.58
19811;BME280;10065;49.632;8.346;2022-12-07T07:31:00;100694.72;;;7.65;68.81
19811;BME280;10065;49.632;8.346;2022-12-07T07:33:28;100690.97;;;7.67;68.80
19811;BME280;10065;49.632;8.346;2022-12-07T07:35:56;100697.75;;;7.49;68.86
19811;BME280;10065;49.632;8.346;2022-12-07T07:38:24;100704.47;;;7.42;69.24
19811;BME280;10065;49.632;8.346;2022-12-07T07:40:52;100703.53;;;7.32;70.06
19811;BME280;10065;49.632;8.346;2022-12-07T07:43:21;100706.88;;;7.23;70.47
19811;BME280;10065;49.632;8.346;2022-12-07T07:45:49;100708.09;;;7.30;70.69
19811;BME280;10065;49.632;8.346;2022-12-07T07:48:17;100706.03;;;7.44;70.32
19811;BME280;10065;49.632;8.346;2022-12-07T07:50:45;100714.06;;;7.54;69.45
19811;BME280;10065;49.632;8.346;2022-12-07T07:53:12;100702.53;;;7.55;69.27
19811;BME280;10065;49.632;8.346;2022-12-07T07:55:40;100709.00;;;7.51;69.47
19811;BME280;10065;49.632;8.346;2022-12-07T07:58:08;100717.06;;;7.49;69.42
19811;BME280;10065;49.632;8.346;2022-12-07T08:00:37;100713.44;;;7.62;69.23
19811;BME280;10065;49.632;8.346;2022-12-07T08:03:04;100714.75;;;7.67;69.00
19811;BME280;10065;49.632;8.346;2022-12-07T08:05:32;100716.06;;;7.73;68.67
19811;BME280;10065;49.632;8.346;2022-12-07T08:08:00;100717.88;;;7.72;68.59
19811;BME280;10065;49.632;8.346;2022-12-07T08:10:28;100720.00;;;7.67;68.78
19811;BME280;10065;49.632;8.346;2022-12-07T08:12:56;100718.84;;;7.60;69.30
19811;BME280;10065;49.632;8.346;2022-12-07T08:15:43;100714.00;;;7.76;68.99
19811;BME280;10065;49.632;8.346;2022-12-07T08:18:12;100715.16;;;7.83;68.46
19811;BME280;10065;49.632;8.346;2022-12-07T08:20:41;100715.78;;;7.87;68.21
19811;BME280;10065;49.632;8.346;2022-12-07T08:23:10;100719.00;;;7.90;68.03
19811;BME280;10065;49.632;8.346;2022-12-07T08:25:38;100715.66;;;7.88;68.04
19811;BME280;10065;49.632;8.346;2022-12-07T08:28:06;100715.78;;;7.87;67.70
19811;BME280;10065;49.632;8.346;2022-12-07T08:30:34;100718.28;;;7.88;67.84
19811;BME280;10065;49.632;8.346;2022-12-07T08:33:03;100718.06;;;7.91;67.92
19811;BME280;10065;49.632;8.346;2022-12-07T08:35:32;100717.56;;;7.86;68.06
19811;BME280;10065;49.632;8.346;2022-12-07T08:38:01;100721.91;;;7.87;68.20
19811;BME280;10065;49.632;8.346;2022-12-07T08:40:30;100729.19;;;7.95;68.20
19811;BME280;10065;49.632;8.346;2022-12-07T08:42:58;100720.63;;;8.03;67.78
19811;BME280;10065;49.632;8.346;2022-12-07T08:45:25;100725.47;;;7.98;68.31
19811;BME280;10065;49.632;8.346;2022-12-07T08:47:56;100717.28;;;8.01;67.92
19811;BME280;10065;49.632;8.346;2022-12-07T08:50:38;100721.25;;;7.95;68.60
19811;BME280;10065;49.632;8.346;2022-12-07T08:53:14;100725.72;;;7.94;68.70
19811;BME280;10065;49.632;8.346;2022-12-07T08:55:43;100726.19;;;8.00;69.03
19811;BME280;10065;49.632;8.346;2022-12-07T08:58:11;100716.88;;;8.16;68.54
19811;BME280;10065;49.632;8.346;2022-12-07T09:00:39;100718.59;;;8.27;68.08
19811;BME280;10065;49.632;8.346;2022-12-07T09:03:07;100713.44;;;8.37;67.63
19811;BME280;10065;49.632;8.346;2022-12-07T09:05:36;100717.09;;;8.45;67.47
19811;BME280;10065;49.632;8.346;2022-12-07T09:08:05;100715.66;;;8.52;67.30
19811;BME280;10065;49.632;8.346;2022-12-07T09:10:33;100724.72;;;8.59;66.97
19811;BME280;10065;49.632;8.346;2022-12-07T09:13:01;100721.13;;;8.60;66.42
19811;BME280;10065;49.632;8.346;2022-12-07T09:15:29;100722.53;;;8.64;66.18
19811;BME280;10065;49.632;8.346;2022-12-07T09:17:57;100728.91;;;8.62;66.02
19811;BME280;10065;49.632;8.346;2022-12-07T09:20:25;100722.53;;;8.64;66.09
19811;BME280;10065;49.632;8.346;2022-12-07T09:22:57;100726.59;;;8.68;66.14
19811;BME280;10065;49.632;8.346;2022-12-07T09:25:24;100722.72;;;8.73;65.93
19811;BME280;10065;49.632;8.346;2022-12-07T09:27:55;100735.81;;;8.74;65.90
19811;BME280;10065;49.632;8.346;2022-12-07T09:30:23;100729.31;;;8.78;66.00
19811;BME280;10065;49.632;8.346;2022-12-07T09:32:53;100728.53;;;8.87;65.81
19811;BME280;10065;49.632;8.346;2022-12-07T09:35:22;100722.97;;;8.90;65.67
19811;BME280;10065;49.632;8.346;2022-12-07T09:37:50;100724.44;;;9.04;65.28
19811;BME280;10065;49.632;8.346;2022-12-07T09:40:20;100722.66;;;9.14;65.07
19811;BME280;10065;49.632;8.346;2022-12-07T09:42:51;100725.31;;;9.14;64.88
19811;BME280;10065;49.632;8.346;2022-12-07T09:45:23;100719.34;;;9.22;64.67
19811;BME280;10065;49.632;8.346;2022-12-07T09:47:51;100721.47;;;9.28;64.45
19811;BME280;10065;49.632;8.346;2022-12-07T09:50:21;100716.78;;;9.41;64.03
19811;BME280;10065;49.632;8.346;2022-12-07T09:52:50;100716.78;;;9.51;63.56
19811;BME280;10065;49.632;8.346;2022-12-07T09:55:24;100717.66;;;9.61;63.20
19811;BME280;10065;49.632;8.346;2022-12-07T09:57:53;100717.13;;;9.67;63.04
19811;BME280;10065;49.632;8.346;2022-12-07T10:00:23;100715.47;;;9.75;62.76
19811;BME280;10065;49.632;8.346;2022-12-07T10:02:54;100720.78;;;9.95;62.16
19811;BME280;10065;49.632;8.346;2022-12-07T10:05:28;100711.31;;;10.11;61.53
19811;BME280;10065;49.632;8.346;2022-12-07T10:07:57;100712.03;;;10.42;61.03
19811;BME280;10065;49.632;8.346;2022-12-07T10:10:30;100712.97;;;11.17;58.51
19811;BME280;10065;49.632;8.346;2022-12-07T10:13:05;100710.84;;;11.48;56.81
19811;BME280;10065;49.632;8.346;2022-12-07T10:15:46;100700.09;;;11.49;56.26
19811;BME280;10065;49.632;8.346;2022-12-07T10:18:25;100697.81;;;11.99;55.43
19811;BME280;10065;49.632;8.346;2022-12-07T10:21:03;100693.63;;;12.32;53.79
19811;BME280;10065;49.632;8.346;2022-12-07T10:23:34;100683.00;;;12.15;54.24
19811;BME280;10065;49.632;8.346;2022-12-07T10:28:56;100691.31;;;13.41;51.87
19811;BME280;10065;49.632;8.346;2022-12-07T10:31:26;100685.47;;;14.28;48.93
19811;BME280;10065;49.632;8.346;2022-12-07T10:33:55;100681.84;;;14.45;47.95
19811;BME280;10065;49.632;8.346;2022-12-07T10:36:25;100685.16;;;14.31;48.36
19811;BME280;10065;49.632;8.346;2022-12-07T10:38:59;100680.16;;;14.44;48.11
19811;BME280;10065;49.632;8.346;2022-12-07T10:41:27;100683.91;;;14.98;47.09
19811;BME280;10065;49.632;8.346;2022-12-07T10:43:57;100683.81;;;14.67;46.58
19811;BME280;10065;49.632;8.346;2022-12-07T10:46:44;100683.63;;;13.96;47.09
19811;BME280;10065;49.632;8.346;2022-12-07T10:49:35;100690.22;;;13.17;47.50
19811;BME280;10065;49.632;8.346;2022-12-07T10:52:12;100680.63;;;12.73;48.71
19811;BME280;10065;49.632;8.346;2022-12-07T10:54:52;100679.34;;;12.33;49.72
19811;BME280;10065;49.632;8.346;2022-12-07T10:57:37;100677.34;;;12.79;49.87
19811;BME280;10065;49.632;8.346;2022-12-07T11:00:17;100666.66;;;14.46;46.15
19811;BME280;10065;49.632;8.346;2022-12-07T11:02:59;100664.03;;;15.01;44.33
19811;BME280;10065;49.632;8.346;2022-12-07T11:05:39;100659.44;;;14.71;43.86
19811;BME280;10065;49.632;8.346;2022-12-07T11:08:19;100658.47;;;14.31;44.90
19811;BME280;10065;49.632;8.346;2022-12-07T11:10:53;100653.47;;;13.96;45.29
19811;BME280;10065;49.632;8.346;2022-12-07T11:13:27;100660.81;;;14.10;45.69
19811;BME280;10065;49.632;8.346;2022-12-07T11:19:06;100654.28;;;13.22;47.62
19811;BME280;10065;49.632;8.346;2022-12-07T11:21:48;100643.78;;;12.86;48.07
19811;BME280;10065;49.632;8.346;2022-12-07T11:24:27;100650.25;;;12.58;48.49
19811;BME280;10065;49.632;8.346;2022-12-07T11:27:10;100636.94;;;12.32;48.72
19811;BME280;10065;49.632;8.346;2022-12-07T11:29:49;100636.97;;;12.14;49.34
19811;BME280;10065;49.632;8.346;2022-12-07T11:32:44;100631.84;;;11.95;50.32
19811;BME280;10065;49.632;8.346;2022-12-07T11:35:21;100629.41;;;11.84;51.14
19811;BME280;10065;49.632;8.346;2022-12-07T11:37:52;100627.78;;;11.73;51.06
19811;BME280;10065;49.632;8.346;2022-12-07T11:40:26;100626.19;;;11.62;51.67
19811;BME280;10065;49.632;8.346;2022-12-07T11:42:59;100624.28;;;11.55;51.45
19811;BME280;10065;49.632;8.346;2022-12-07T11:45:29;100625.91;;;11.20;51.19
19811;BME280;10065;49.632;8.346;2022-12-07T11:48:01;100630.16;;;10.76;53.22
19811;BME280;10065;49.632;8.346;2022-12-07T11:50:34;100624.09;;;10.47;54.15
19811;BME280;10065;49.632;8.346;2022-12-07T11:53:10;100618.28;;;10.34;54.61
19811;BME280;10065;49.632;8.346;2022-12-07T11:55:45;100623.34;;;10.17;55.75
19811;BME280;10065;49.632;8.346;2022-12-07T11:58:23;100614.13;;;10.02;56.16
19811;BME280;10065;49.632;8.346;2022-12-07T12:01:06;100616.34;;;9.88;56.79
19811;BME280;10065;49.632;8.346;2022-12-07T12:03:40;100617.31;;;9.77;57.47
19811;BME280;10065;49.632;8.346;2022-12-07T12:06:19;100609.25;;;9.69;56.94
19811;BME280;10065;49.632;8.346;2022-12-07T12:08:51;100607.59;;;9.58;58.41
19811;BME280;10065;49.632;8.346;2022-12-07T12:12:05;100602.13;;;9.50;57.91
19811;BME280;10065;49.632;8.346;2022-12-07T12:15:05;100604.75;;;9.50;57.95
19811;BME280;10065;49.632;8.346;2022-12-07T12:17:50;100597.00;;;9.49;58.42
19811;BME280;10065;49.632;8.346;2022-12-07T12:20:26;100603.13;;;9.49;59.34
19811;BME280;10065;49.632;8.346;2022-12-07T12:23:01;100598.09;;;9.46;59.24
19811;BME280;10065;49.632;8.346;2022-12-07T12:25:38;100606.16;;;9.44;59.07
19811;BME280;10065;49.632;8.346;2022-12-07T12:28:20;100593.06;;;9.43;59.42
19811;BME280;10065;49.632;8.346;2022-12-07T12:31:05;100593.78;;;9.45;59.23
19811;BME280;10065;49.632;8.346;2022-12-07T12:33:34;100586.66;;;9.46;59.65
19811;BME280;10065;49.632;8.346;2022-12-07T12:36:42;100585.25;;;9.51;60.13
19811;BME280;10065;49.632;8.346;2022-12-07T12:39:14;100580.13;;;9.59;59.78
19811;BME280;10065;49.632;8.346;2022-12-07T12:41:53;100575.38;;;9.63;58.21
19811;BME280;10065;49.632;8.346;2022-12-07T12:44:41;100586.38;;;9.68;58.59
19811;BME280;10065;49.632;8.346;2022-12-07T12:50:30;100573.97;;;9.59;58.70
19811;BME280;10065;49.632;8.346;2022-12-07T12:53:03;100576.94;;;9.56;59.11
19811;BME280;10065;49.632;8.346;2022-12-07T12:58:40;100562.97;;;9.54;60.63
19811;BME280;10065;49.632;8.346;2022-12-07T13:01:43;100559.09;;;9.58;60.35
19811;BME280;10065;49.632;8.346;2022-12-07T13:04:51;100558.78;;;9.51;60.05
19811;BME280;10065;49.632;8.346;2022-12-07T13:10:40;100547.09;;;9.34;61.37
19811;BME280;10065;49.632;8.346;2022-12-07T13:13:32;100546.81;;;9.37;61.36
19811;BME280;10065;49.632;8.346;2022-12-07T13:19:56;100542.94;;;9.32;61.69
19811;BME280;10065;49.632;8.346;2022-12-07T13:22:46;100534.69;;;9.25;62.14
19811;BME280;10065;49.632;8.346;2022-12-07T13:25:21;100532.63;;;9.29;62.22
19811;BME280;10065;49.632;8.346;2022-12-07T13:28:00;100534.81;;;9.33;62.07
19811;BME280;10065;49.632;8.346;2022-12-07T13:30:29;100531.19;;;9.25;61.74
19811;BME280;10065;49.632;8.346;2022-12-07T13:32:58;100533.56;;;9.18;61.45
19811;BME280;10065;49.632;8.346;2022-12-07T13:35:31;100535.94;;;9.21;61.86
19811;BME280;10065;49.632;8.346;2022-12-07T13:38:04;100540.94;;;9.24;61.59
19811;BME280;10065;49.632;8.346;2022-12-07T13:40:33;100531.38;;;9.23;61.92
19811;BME280;10065;49.632;8.346;2022-12-07T13:43:04;100538.47;;;9.23;61.58
19811;BME280;10065;49.632;8.346;2022-12-07T13:45:33;100537.06;;;9.19;61.53